sensor_id;sensor_type;location;lat;lon;timestamp;P1;durP1;ratioP1;P2;durP2;ratioP2
53411;SDS011;39307;52.870;13.660;2023-07-30T00:01:37;6.90;;;3.53;;
53411;SDS011;39307;52.870;13.660;2023-07-30T00:04:13;5.82;;;3.22;;
53411;SDS011;39307;52.870;13.660;2023-07-30T00:06:48;6.10;;;3.42;;
53411;SDS011;39307;52.870;13.660;2023-07-30T00:12:12;5.95;;;3.40;;
53411;SDS011;39307;52.870;13.660;2023-07-30T00:15:02;6.00;;;3.20;;
53411;SDS011;39307;52.870;13.660;2023-07-30T00:17:47;8.05;;;3.50;;
53411;SDS011;39307;52.870;13.660;2023-07-30T00:20:16;5.80;;;3.30;;
53411;SDS011;39307;52.870;13.660;2023-07-30T00:22:54;11.55;;;3.50;;
53411;SDS011;39307;52.870;13.660;2023-07-30T00:26:08;7.40;;;3.45;;
53411;SDS011;39307;52.870;13.660;2023-07-30T00:31:33;6.57;;;3.22;;
53411;SDS011;39307;52.870;13.660;2023-07-30T00:34:08;5.32;;;3.30;;
53411;SDS011;39307;52.870;13.660;2023-07-30T00:36:40;5.63;;;2.90;;
53411;SDS011;39307;52.870;13.660;2023-07-30T00:39:27;5.90;;;2.90;;
53411;SDS011;39307;52.870;13.660;2023-07-30T00:41:56;5.32;;;3.05;;
53411;SDS011;39307;52.870;13.660;2023-07-30T00:44:22;7.82;;;3.25;;
53411;SDS011;39307;52.870;13.660;2023-07-30T00:46:58;6.38;;;3.10;;
53411;SDS011;39307;52.870;13.660;2023-07-30T00:49:30;7.72;;;3.20;;
53411;SDS011;39307;52.870;13.660;2023-07-30T00:52:09;5.43;;;3.00;;
53411;SDS011;39307;52.870;13.660;2023-07-30T00:54:40;5.53;;;2.95;;
53411;SDS011;39307;52.870;13.660;2023-07-30T00:57:07;5.85;;;2.83;;
53411;SDS011;39307;52.870;13.660;2023-07-30T00:59:39;4.50;;;2.88;;
53411;SDS011;39307;52.870;13.660;2023-07-30T01:02:09;4.40;;;2.60;;
53411;SDS011;39307;52.870;13.660;2023-07-30T01:04:35;6.05;;;2.70;;
53411;SDS011;39307;52.870;13.660;2023-07-30T01:07:02;7.22;;;2.70;;
53411;SDS011;39307;52.870;13.660;2023-07-30T01:09:32;6.47;;;2.67;;
53411;SDS011;39307;52.870;13.660;2023-07-30T01:12:06;4.65;;;2.70;;
53411;SDS011;39307;52.870;13.660;2023-07-30T01:14:33;5.70;;;2.90;;
53411;SDS011;39307;52.870;13.660;2023-07-30T01:17:04;7.22;;;3.10;;
53411;SDS011;39307;52.870;13.660;2023-07-30T01:19:31;4.90;;;3.10;;
53411;SDS011;39307;52.870;13.660;2023-07-30T01:22:07;5.85;;;2.65;;
53411;SDS011;39307;52.870;13.660;2023-07-30T01:24:53;8.52;;;3.00;;
53411;SDS011;39307;52.870;13.660;2023-07-30T01:27:33;4.72;;;2.72;;
53411;SDS011;39307;52.870;13.660;2023-07-30T01:33:13;5.43;;;2.78;;
53411;SDS011;39307;52.870;13.660;2023-07-30T01:35:48;5.22;;;2.70;;
53411;SDS011;39307;52.870;13.660;2023-07-30T01:38:18;4.47;;;2.90;;
53411;SDS011;39307;52.870;13.660;2023-07-30T01:40:48;6.40;;;3.10;;
53411;SDS011;39307;52.870;13.660;2023-07-30T01:43:17;5.03;;;3.10;;
53411;SDS011;39307;52.870;13.660;2023-07-30T01:48:33;6.13;;;3.03;;
53411;SDS011;39307;52.870;13.660;2023-07-30T01:51:00;6.50;;;3.13;;
53411;SDS011;39307;52.870;13.660;2023-07-30T01:53:29;4.90;;;3.05;;
53411;SDS011;39307;52.870;13.660;2023-07-30T01:55:59;4.57;;;2.97;;
53411;SDS011;39307;52.870;13.660;2023-07-30T01:58:34;6.60;;;3.15;;
53411;SDS011;39307;52.870;13.660;2023-07-30T02:01:04;4.60;;;3.15;;
53411;SDS011;39307;52.870;13.660;2023-07-30T02:03:39;5.33;;;3.07;;
53411;SDS011;39307;52.870;13.660;2023-07-30T02:06:05;5.60;;;3.30;;
53411;SDS011;39307;52.870;13.660;2023-07-30T02:08:32;6.80;;;3.17;;
53411;SDS011;39307;52.870;13.660;2023-07-30T02:10:58;7.15;;;3.13;;
53411;SDS011;39307;52.870;13.660;2023-07-30T02:13:25;6.22;;;3.35;;
53411;SDS011;39307;52.870;13.660;2023-07-30T02:15:52;4.32;;;2.80;;
53411;SDS011;39307;52.870;13.660;2023-07-30T02:18:18;5.80;;;3.03;;
53411;SDS011;39307;52.870;13.660;2023-07-30T02:20:47;6.15;;;3.28;;
53411;SDS011;39307;52.870;13.660;2023-07-30T02:23:16;5.30;;;3.10;;
53411;SDS011;39307;52.870;13.660;2023-07-30T02:25:51;6.10;;;3.10;;
53411;SDS011;39307;52.870;13.660;2023-07-30T02:28:18;5.68;;;3.13;;
53411;SDS011;39307;52.870;13.660;2023-07-30T02:30:57;5.72;;;3.60;;
53411;SDS011;39307;52.870;13.660;2023-07-30T02:34:07;5.90;;;3.60;;
53411;SDS011;39307;52.870;13.660;2023-07-30T02:36:53;6.25;;;3.40;;
53411;SDS011;39307;52.870;13.660;2023-07-30T02:39:31;5.78;;;3.20;;
53411;SDS011;39307;52.870;13.660;2023-07-30T02:41:58;5.50;;;3.00;;
53411;SDS011;39307;52.870;13.660;2023-07-30T02:44:33;6.67;;;3.17;;
53411;SDS011;39307;52.870;13.660;2023-07-30T02:47:02;5.65;;;3.20;;
53411;SDS011;39307;52.870;13.660;2023-07-30T02:49:41;6.95;;;3.53;;
53411;SDS011;39307;52.870;13.660;2023-07-30T02:52:11;6.85;;;3.50;;
53411;SDS011;39307;52.870;13.660;2023-07-30T02:54:37;7.57;;;3.75;;
53411;SDS011;39307;52.870;13.660;2023-07-30T02:57:24;6.75;;;3.38;;
53411;SDS011;39307;52.870;13.660;2023-07-30T02:59:58;7.13;;;3.25;;
53411;SDS011;39307;52.870;13.660;2023-07-30T03:02:58;5.38;;;3.28;;
53411;SDS011;39307;52.870;13.660;2023-07-30T03:05:48;6.47;;;3.60;;
53411;SDS011;39307;52.870;13.660;2023-07-30T03:08:27;6.83;;;3.40;;
53411;SDS011;39307;52.870;13.660;2023-07-30T03:11:05;7.10;;;3.65;;
53411;SDS011;39307;52.870;13.660;2023-07-30T03:13:48;5.53;;;3.40;;
53411;SDS011;39307;52.870;13.660;2023-07-30T03:22:15;8.32;;;3.70;;
53411;SDS011;39307;52.870;13.660;2023-07-30T03:27:55;6.40;;;3.55;;
53411;SDS011;39307;52.870;13.660;2023-07-30T03:30:26;6.20;;;3.70;;
53411;SDS011;39307;52.870;13.660;2023-07-30T03:33:15;6.43;;;3.60;;
53411;SDS011;39307;52.870;13.660;2023-07-30T03:35:42;6.18;;;3.55;;
53411;SDS011;39307;52.870;13.660;2023-07-30T03:38:45;7.20;;;3.50;;
53411;SDS011;39307;52.870;13.660;2023-07-30T03:41:19;5.90;;;3.60;;
53411;SDS011;39307;52.870;13.660;2023-07-30T03:43:57;7.15;;;3.65;;
53411;SDS011;39307;52.870;13.660;2023-07-30T03:46:27;6.07;;;3.47;;
53411;SDS011;39307;52.870;13.660;2023-07-30T03:48:53;7.32;;;3.70;;
53411;SDS011;39307;52.870;13.660;2023-07-30T03:51:40;7.45;;;4.00;;
53411;SDS011;39307;52.870;13.660;2023-07-30T03:54:06;5.75;;;3.60;;
53411;SDS011;39307;52.870;13.660;2023-07-30T03:56:38;7.18;;;3.97;;
53411;SDS011;39307;52.870;13.660;2023-07-30T04:02:02;6.72;;;3.60;;
53411;SDS011;39307;52.870;13.660;2023-07-30T04:04:32;5.35;;;3.47;;
53411;SDS011;39307;52.870;13.660;2023-07-30T04:07:13;7.03;;;3.80;;
53411;SDS011;39307;52.870;13.660;2023-07-30T04:09:39;7.63;;;3.50;;
53411;SDS011;39307;52.870;13.660;2023-07-30T04:12:22;7.60;;;3.88;;
53411;SDS011;39307;52.870;13.660;2023-07-30T04:14:56;4.82;;;3.33;;
53411;SDS011;39307;52.870;13.660;2023-07-30T04:17:46;5.97;;;3.88;;
53411;SDS011;39307;52.870;13.660;2023-07-30T04:20:21;6.13;;;4.00;;
53411;SDS011;39307;52.870;13.660;2023-07-30T04:23:05;6.97;;;3.63;;
53411;SDS011;39307;52.870;13.660;2023-07-30T04:25:37;7.30;;;4.15;;
53411;SDS011;39307;52.870;13.660;2023-07-30T04:28:07;5.72;;;4.20;;
53411;SDS011;39307;52.870;13.660;2023-07-30T04:30:36;6.90;;;4.30;;
53411;SDS011;39307;52.870;13.660;2023-07-30T04:33:24;6.63;;;4.55;;
53411;SDS011;39307;52.870;13.660;2023-07-30T04:38:47;7.50;;;4.15;;
53411;SDS011;39307;52.870;13.660;2023-07-30T04:41:14;7.00;;;4.10;;
53411;SDS011;39307;52.870;13.660;2023-07-30T04:43:43;8.60;;;4.97;;
53411;SDS011;39307;52.870;13.660;2023-07-30T04:46:09;8.45;;;4.63;;
53411;SDS011;39307;52.870;13.660;2023-07-30T04:48:44;6.97;;;4.47;;
53411;SDS011;39307;52.870;13.660;2023-07-30T04:51:17;7.57;;;4.32;;
53411;SDS011;39307;52.870;13.660;2023-07-30T04:53:46;5.95;;;4.18;;
53411;SDS011;39307;52.870;13.660;2023-07-30T04:56:15;7.32;;;4.22;;
53411;SDS011;39307;52.870;13.660;2023-07-30T04:58:54;7.03;;;4.00;;
53411;SDS011;39307;52.870;13.660;2023-07-30T05:01:26;7.40;;;4.55;;
53411;SDS011;39307;52.870;13.660;2023-07-30T05:03:56;7.60;;;4.10;;
53411;SDS011;39307;52.870;13.660;2023-07-30T05:06:22;7.30;;;4.40;;
53411;SDS011;39307;52.870;13.660;2023-07-30T05:08:48;5.90;;;4.13;;
53411;SDS011;39307;52.870;13.660;2023-07-30T05:11:26;6.80;;;4.30;;
53411;SDS011;39307;52.870;13.660;2023-07-30T05:14:11;7.75;;;4.60;;
53411;SDS011;39307;52.870;13.660;2023-07-30T05:16:37;6.38;;;4.60;;
53411;SDS011;39307;52.870;13.660;2023-07-30T05:19:19;9.57;;;4.80;;
53411;SDS011;39307;52.870;13.660;2023-07-30T05:21:48;6.53;;;4.35;;
53411;SDS011;39307;52.870;13.660;2023-07-30T05:24:26;6.43;;;4.40;;
53411;SDS011;39307;52.870;13.660;2023-07-30T05:27:22;7.78;;;4.30;;
53411;SDS011;39307;52.870;13.660;2023-07-30T05:29:48;7.35;;;4.40;;
53411;SDS011;39307;52.870;13.660;2023-07-30T05:32:14;6.10;;;4.35;;
53411;SDS011;39307;52.870;13.660;2023-07-30T05:34:53;7.18;;;4.30;;
53411;SDS011;39307;52.870;13.660;2023-07-30T05:37:42;6.97;;;4.60;;
53411;SDS011;39307;52.870;13.660;2023-07-30T05:40:22;8.35;;;4.53;;
53411;SDS011;39307;52.870;13.660;2023-07-30T05:42:49;7.80;;;4.20;;
53411;SDS011;39307;52.870;13.660;2023-07-30T05:45:18;6.30;;;4.20;;
53411;SDS011;39307;52.870;13.660;2023-07-30T05:47:54;6.97;;;4.15;;
53411;SDS011;39307;52.870;13.660;2023-07-30T05:50:26;7.80;;;4.25;;
53411;SDS011;39307;52.870;13.660;2023-07-30T05:52:58;6.75;;;3.53;;
53411;SDS011;39307;52.870;13.660;2023-07-30T05:55:36;7.00;;;3.88;;
53411;SDS011;39307;52.870;13.660;2023-07-30T05:58:05;5.80;;;3.63;;
53411;SDS011;39307;52.870;13.660;2023-07-30T06:00:34;6.85;;;3.80;;
53411;SDS011;39307;52.870;13.660;2023-07-30T06:03:09;6.00;;;3.70;;
53411;SDS011;39307;52.870;13.660;2023-07-30T06:05:51;5.90;;;3.78;;
53411;SDS011;39307;52.870;13.660;2023-07-30T06:08:23;8.07;;;3.70;;
53411;SDS011;39307;52.870;13.660;2023-07-30T06:10:52;5.60;;;3.40;;
53411;SDS011;39307;52.870;13.660;2023-07-30T06:13:35;6.45;;;3.50;;
53411;SDS011;39307;52.870;13.660;2023-07-30T06:16:17;6.70;;;3.60;;
53411;SDS011;39307;52.870;13.660;2023-07-30T06:18:52;6.18;;;3.67;;
53411;SDS011;39307;52.870;13.660;2023-07-30T06:21:37;6.97;;;3.40;;
53411;SDS011;39307;52.870;13.660;2023-07-30T06:24:23;5.65;;;3.33;;
53411;SDS011;39307;52.870;13.660;2023-07-30T06:27:00;6.07;;;3.10;;
53411;SDS011;39307;52.870;13.660;2023-07-30T06:29:26;5.90;;;3.25;;
53411;SDS011;39307;52.870;13.660;2023-07-30T06:32:18;5.20;;;3.00;;
53411;SDS011;39307;52.870;13.660;2023-07-30T06:34:47;4.88;;;3.00;;
53411;SDS011;39307;52.870;13.660;2023-07-30T06:37:26;5.68;;;3.28;;
53411;SDS011;39307;52.870;13.660;2023-07-30T06:39:52;5.85;;;3.08;;
53411;SDS011;39307;52.870;13.660;2023-07-30T06:42:18;5.45;;;2.90;;
53411;SDS011;39307;52.870;13.660;2023-07-30T06:44:54;3.97;;;2.60;;
53411;SDS011;39307;52.870;13.660;2023-07-30T06:47:20;4.32;;;2.65;;
53411;SDS011;39307;52.870;13.660;2023-07-30T06:49:46;3.47;;;2.28;;
53411;SDS011;39307;52.870;13.660;2023-07-30T06:52:13;4.57;;;2.47;;
53411;SDS011;39307;52.870;13.660;2023-07-30T06:54:39;6.43;;;2.72;;
53411;SDS011;39307;52.870;13.660;2023-07-30T06:57:05;4.47;;;2.55;;
53411;SDS011;39307;52.870;13.660;2023-07-30T06:59:31;5.50;;;2.30;;
53411;SDS011;39307;52.870;13.660;2023-07-30T07:01:59;5.22;;;2.50;;
53411;SDS011;39307;52.870;13.660;2023-07-30T07:04:25;4.07;;;2.33;;
53411;SDS011;39307;52.870;13.660;2023-07-30T07:07:05;4.70;;;2.50;;
53411;SDS011;39307;52.870;13.660;2023-07-30T07:09:34;4.47;;;2.40;;
53411;SDS011;39307;52.870;13.660;2023-07-30T07:15:19;4.97;;;2.75;;
53411;SDS011;39307;52.870;13.660;2023-07-30T07:20:44;4.40;;;2.53;;
53411;SDS011;39307;52.870;13.660;2023-07-30T07:23:11;5.32;;;2.60;;
53411;SDS011;39307;52.870;13.660;2023-07-30T07:25:37;6.65;;;2.67;;
53411;SDS011;39307;52.870;13.660;2023-07-30T07:28:03;6.30;;;2.90;;
53411;SDS011;39307;52.870;13.660;2023-07-30T07:30:34;4.35;;;2.45;;
53411;SDS011;39307;52.870;13.660;2023-07-30T07:33:01;3.80;;;2.17;;
53411;SDS011;39307;52.870;13.660;2023-07-30T07:35:28;5.03;;;2.63;;
53411;SDS011;39307;52.870;13.660;2023-07-30T07:38:14;6.07;;;2.90;;
53411;SDS011;39307;52.870;13.660;2023-07-30T07:40:49;4.75;;;2.50;;
53411;SDS011;39307;52.870;13.660;2023-07-30T07:43:25;5.80;;;2.63;;
53411;SDS011;39307;52.870;13.660;2023-07-30T07:45:55;6.07;;;2.38;;
53411;SDS011;39307;52.870;13.660;2023-07-30T07:48:27;3.88;;;1.95;;
53411;SDS011;39307;52.870;13.660;2023-07-30T07:50:59;4.85;;;2.22;;
53411;SDS011;39307;52.870;13.660;2023-07-30T07:53:25;4.18;;;2.28;;
53411;SDS011;39307;52.870;13.660;2023-07-30T07:55:54;6.00;;;2.30;;
53411;SDS011;39307;52.870;13.660;2023-07-30T08:01:44;5.03;;;2.40;;
53411;SDS011;39307;52.870;13.660;2023-07-30T08:04:25;4.38;;;2.20;;
53411;SDS011;39307;52.870;13.660;2023-07-30T08:07:00;5.47;;;2.50;;
53411;SDS011;39307;52.870;13.660;2023-07-30T08:09:45;5.97;;;2.30;;
53411;SDS011;39307;52.870;13.660;2023-07-30T08:12:53;5.47;;;2.20;;
53411;SDS011;39307;52.870;13.660;2023-07-30T08:18:04;4.10;;;2.00;;
53411;SDS011;39307;52.870;13.660;2023-07-30T08:20:39;4.25;;;2.10;;
53411;SDS011;39307;52.870;13.660;2023-07-30T08:23:11;4.30;;;1.95;;
53411;SDS011;39307;52.870;13.660;2023-07-30T08:26:04;4.13;;;1.80;;
53411;SDS011;39307;52.870;13.660;2023-07-30T08:28:42;3.50;;;1.80;;
53411;SDS011;39307;52.870;13.660;2023-07-30T08:31:11;3.47;;;1.67;;
53411;SDS011;39307;52.870;13.660;2023-07-30T08:33:38;3.75;;;1.80;;
53411;SDS011;39307;52.870;13.660;2023-07-30T08:36:07;3.63;;;1.95;;
53411;SDS011;39307;52.870;13.660;2023-07-30T08:38:42;5.80;;;2.05;;
53411;SDS011;39307;52.870;13.660;2023-07-30T08:41:12;3.67;;;1.95;;
53411;SDS011;39307;52.870;13.660;2023-07-30T08:43:39;4.18;;;1.85;;
53411;SDS011;39307;52.870;13.660;2023-07-30T08:46:18;3.85;;;1.85;;
53411;SDS011;39307;52.870;13.660;2023-07-30T08:48:44;4.07;;;2.17;;
53411;SDS011;39307;52.870;13.660;2023-07-30T08:51:26;4.85;;;2.42;;
53411;SDS011;39307;52.870;13.660;2023-07-30T08:54:12;3.78;;;2.05;;
53411;SDS011;39307;52.870;13.660;2023-07-30T08:56:54;3.80;;;2.07;;
53411;SDS011;39307;52.870;13.660;2023-07-30T09:02:34;3.08;;;1.80;;
53411;SDS011;39307;52.870;13.660;2023-07-30T09:05:08;5.13;;;2.10;;
53411;SDS011;39307;52.870;13.660;2023-07-30T09:07:43;5.45;;;2.08;;
53411;SDS011;39307;52.870;13.660;2023-07-30T09:10:12;4.07;;;1.70;;
53411;SDS011;39307;52.870;13.660;2023-07-30T09:12:43;4.07;;;1.70;;
53411;SDS011;39307;52.870;13.660;2023-07-30T09:15:36;3.90;;;1.63;;
53411;SDS011;39307;52.870;13.660;2023-07-30T09:18:03;3.63;;;1.60;;
53411;SDS011;39307;52.870;13.660;2023-07-30T09:20:39;3.72;;;1.52;;
53411;SDS011;39307;52.870;13.660;2023-07-30T09:23:07;3.42;;;1.70;;
53411;SDS011;39307;52.870;13.660;2023-07-30T09:25:54;4.47;;;1.58;;
53411;SDS011;39307;52.870;13.660;2023-07-30T09:28:39;4.10;;;1.60;;
53411;SDS011;39307;52.870;13.660;2023-07-30T09:31:08;3.53;;;1.40;;
53411;SDS011;39307;52.870;13.660;2023-07-30T09:33:39;3.72;;;1.45;;
53411;SDS011;39307;52.870;13.660;2023-07-30T09:36:08;2.80;;;1.42;;
53411;SDS011;39307;52.870;13.660;2023-07-30T09:38:41;3.10;;;1.58;;
53411;SDS011;39307;52.870;13.660;2023-07-30T09:41:08;5.07;;;1.60;;
53411;SDS011;39307;52.870;13.660;2023-07-30T09:43:40;3.00;;;1.58;;
53411;SDS011;39307;52.870;13.660;2023-07-30T09:46:10;2.95;;;1.40;;
53411;SDS011;39307;52.870;13.660;2023-07-30T09:48:39;3.75;;;1.55;;
53411;SDS011;39307;52.870;13.660;2023-07-30T09:51:15;3.20;;;1.50;;
53411;SDS011;39307;52.870;13.660;2023-07-30T09:53:41;4.10;;;1.80;;
53411;SDS011;39307;52.870;13.660;2023-07-30T09:56:08;3.50;;;1.70;;
53411;SDS011;39307;52.870;13.660;2023-07-30T09:58:38;4.63;;;1.73;;
53411;SDS011;39307;52.870;13.660;2023-07-30T10:01:04;3.00;;;1.50;;
53411;SDS011;39307;52.870;13.660;2023-07-30T10:03:31;3.97;;;1.38;;
53411;SDS011;39307;52.870;13.660;2023-07-30T10:06:02;3.47;;;1.42;;
53411;SDS011;39307;52.870;13.660;2023-07-30T10:08:31;4.07;;;1.53;;
53411;SDS011;39307;52.870;13.660;2023-07-30T10:11:03;4.07;;;1.80;;
53411;SDS011;39307;52.870;13.660;2023-07-30T10:13:33;3.17;;;1.70;;
53411;SDS011;39307;52.870;13.660;2023-07-30T10:16:01;4.35;;;1.67;;
53411;SDS011;39307;52.870;13.660;2023-07-30T10:18:40;4.13;;;1.70;;
53411;SDS011;39307;52.870;13.660;2023-07-30T10:21:08;4.00;;;1.40;;
53411;SDS011;39307;52.870;13.660;2023-07-30T10:23:58;3.83;;;1.40;;
53411;SDS011;39307;52.870;13.660;2023-07-30T10:26:27;3.53;;;1.40;;
53411;SDS011;39307;52.870;13.660;2023-07-30T10:29:14;4.05;;;1.52;;
53411;SDS011;39307;52.870;13.660;2023-07-30T10:31:54;3.60;;;1.60;;
53411;SDS011;39307;52.870;13.660;2023-07-30T10:34:21;3.33;;;1.47;;
53411;SDS011;39307;52.870;13.660;2023-07-30T10:36:52;4.22;;;1.60;;
53411;SDS011;39307;52.870;13.660;2023-07-30T10:39:21;4.03;;;1.60;;
53411;SDS011;39307;52.870;13.660;2023-07-30T10:41:54;3.58;;;1.55;;
53411;SDS011;39307;52.870;13.660;2023-07-30T10:44:27;5.53;;;2.00;;
53411;SDS011;39307;52.870;13.660;2023-07-30T10:46:57;4.10;;;1.70;;
53411;SDS011;39307;52.870;13.660;2023-07-30T10:49:25;3.65;;;1.52;;
53411;SDS011;39307;52.870;13.660;2023-07-30T10:51:52;3.67;;;1.57;;
53411;SDS011;39307;52.870;13.660;2023-07-30T10:54:19;3.42;;;1.50;;
53411;SDS011;39307;52.870;13.660;2023-07-30T10:56:46;4.03;;;1.63;;
53411;SDS011;39307;52.870;13.660;2023-07-30T10:59:13;3.90;;;1.63;;
53411;SDS011;39307;52.870;13.660;2023-07-30T11:01:40;3.83;;;1.60;;
53411;SDS011;39307;52.870;13.660;2023-07-30T11:04:14;5.18;;;1.80;;
53411;SDS011;39307;52.870;13.660;2023-07-30T11:06:46;3.57;;;1.60;;
53411;SDS011;39307;52.870;13.660;2023-07-30T11:09:19;4.97;;;1.85;;
53411;SDS011;39307;52.870;13.660;2023-07-30T11:11:45;4.75;;;1.60;;
53411;SDS011;39307;52.870;13.660;2023-07-30T11:14:18;3.47;;;1.60;;
53411;SDS011;39307;52.870;13.660;2023-07-30T11:16:51;4.18;;;1.77;;
53411;SDS011;39307;52.870;13.660;2023-07-30T11:19:19;4.40;;;1.70;;
53411;SDS011;39307;52.870;13.660;2023-07-30T11:21:45;3.55;;;1.50;;
53411;SDS011;39307;52.870;13.660;2023-07-30T11:24:17;4.07;;;1.70;;
53411;SDS011;39307;52.870;13.660;2023-07-30T11:26:44;4.60;;;1.67;;
53411;SDS011;39307;52.870;13.660;2023-07-30T11:29:16;4.10;;;1.60;;
53411;SDS011;39307;52.870;13.660;2023-07-30T11:31:43;4.85;;;1.77;;
53411;SDS011;39307;52.870;13.660;2023-07-30T11:34:11;5.78;;;1.70;;
53411;SDS011;39307;52.870;13.660;2023-07-30T11:36:38;3.42;;;1.45;;
53411;SDS011;39307;52.870;13.660;2023-07-30T11:39:05;3.43;;;1.70;;
53411;SDS011;39307;52.870;13.660;2023-07-30T11:41:32;4.13;;;1.30;;
53411;SDS011;39307;52.870;13.660;2023-07-30T11:43:58;4.80;;;1.52;;
53411;SDS011;39307;52.870;13.660;2023-07-30T11:46:25;4.50;;;1.55;;
53411;SDS011;39307;52.870;13.660;2023-07-30T11:48:53;4.25;;;1.40;;
53411;SDS011;39307;52.870;13.660;2023-07-30T11:51:40;4.10;;;1.50;;
53411;SDS011;39307;52.870;13.660;2023-07-30T11:54:20;6.15;;;1.45;;
53411;SDS011;39307;52.870;13.660;2023-07-30T11:56:47;5.72;;;2.00;;
53411;SDS011;39307;52.870;13.660;2023-07-30T11:59:20;4.60;;;1.60;;
53411;SDS011;39307;52.870;13.660;2023-07-30T12:01:47;3.22;;;1.52;;
53411;SDS011;39307;52.870;13.660;2023-07-30T12:04:14;4.32;;;1.50;;
53411;SDS011;39307;52.870;13.660;2023-07-30T12:06:42;3.83;;;1.42;;
53411;SDS011;39307;52.870;13.660;2023-07-30T12:09:13;4.15;;;1.50;;
53411;SDS011;39307;52.870;13.660;2023-07-30T12:11:44;5.13;;;1.70;;
53411;SDS011;39307;52.870;13.660;2023-07-30T12:14:26;3.67;;;1.50;;
53411;SDS011;39307;52.870;13.660;2023-07-30T12:17:25;5.47;;;1.65;;
53411;SDS011;39307;52.870;13.660;2023-07-30T12:20:02;4.68;;;1.70;;
53411;SDS011;39307;52.870;13.660;2023-07-30T12:22:28;4.17;;;1.50;;
53411;SDS011;39307;52.870;13.660;2023-07-30T12:24:54;3.53;;;1.70;;
53411;SDS011;39307;52.870;13.660;2023-07-30T12:27:30;3.63;;;1.40;;
53411;SDS011;39307;52.870;13.660;2023-07-30T12:30:33;4.38;;;1.60;;
53411;SDS011;39307;52.870;13.660;2023-07-30T12:33:35;3.00;;;1.30;;
53411;SDS011;39307;52.870;13.660;2023-07-30T12:36:33;4.43;;;1.50;;
53411;SDS011;39307;52.870;13.660;2023-07-30T12:39:07;2.80;;;1.40;;
53411;SDS011;39307;52.870;13.660;2023-07-30T12:41:33;3.88;;;1.60;;
53411;SDS011;39307;52.870;13.660;2023-07-30T12:43:59;4.63;;;1.55;;
53411;SDS011;39307;52.870;13.660;2023-07-30T12:46:26;6.07;;;1.90;;
53411;SDS011;39307;52.870;13.660;2023-07-30T12:48:52;4.72;;;1.50;;
53411;SDS011;39307;52.870;13.660;2023-07-30T12:51:18;5.97;;;1.70;;
53411;SDS011;39307;52.870;13.660;2023-07-30T12:53:45;5.90;;;1.65;;
53411;SDS011;39307;52.870;13.660;2023-07-30T12:56:11;4.93;;;1.80;;
53411;SDS011;39307;52.870;13.660;2023-07-30T12:58:37;4.55;;;1.50;;
53411;SDS011;39307;52.870;13.660;2023-07-30T13:01:04;7.95;;;2.08;;
53411;SDS011;39307;52.870;13.660;2023-07-30T13:03:31;3.70;;;1.60;;
53411;SDS011;39307;52.870;13.660;2023-07-30T13:05:58;4.70;;;1.60;;
53411;SDS011;39307;52.870;13.660;2023-07-30T13:08:26;3.90;;;1.60;;
53411;SDS011;39307;52.870;13.660;2023-07-30T13:10:52;5.45;;;1.58;;
53411;SDS011;39307;52.870;13.660;2023-07-30T13:13:18;5.07;;;1.50;;
53411;SDS011;39307;52.870;13.660;2023-07-30T13:15:44;4.03;;;1.60;;
53411;SDS011;39307;52.870;13.660;2023-07-30T13:18:10;3.28;;;1.48;;
53411;SDS011;39307;52.870;13.660;2023-07-30T13:20:36;4.32;;;1.52;;
53411;SDS011;39307;52.870;13.660;2023-07-30T13:23:03;5.85;;;1.63;;
53411;SDS011;39307;52.870;13.660;2023-07-30T13:25:29;6.18;;;1.70;;
53411;SDS011;39307;52.870;13.660;2023-07-30T13:27:56;5.60;;;1.70;;
53411;SDS011;39307;52.870;13.660;2023-07-30T13:30:23;4.22;;;1.58;;
53411;SDS011;39307;52.870;13.660;2023-07-30T13:32:50;5.90;;;1.60;;
53411;SDS011;39307;52.870;13.660;2023-07-30T13:35:16;4.70;;;1.58;;
53411;SDS011;39307;52.870;13.660;2023-07-30T13:37:43;3.42;;;1.40;;
53411;SDS011;39307;52.870;13.660;2023-07-30T13:40:09;4.97;;;1.50;;
53411;SDS011;39307;52.870;13.660;2023-07-30T13:42:36;6.43;;;1.60;;
53411;SDS011;39307;52.870;13.660;2023-07-30T13:45:02;5.07;;;1.80;;
53411;SDS011;39307;52.870;13.660;2023-07-30T13:47:29;5.32;;;1.80;;
53411;SDS011;39307;52.870;13.660;2023-07-30T13:49:55;4.18;;;1.52;;
53411;SDS011;39307;52.870;13.660;2023-07-30T13:52:22;7.75;;;1.95;;
53411;SDS011;39307;52.870;13.660;2023-07-30T13:54:48;5.50;;;1.70;;
53411;SDS011;39307;52.870;13.660;2023-07-30T13:57:21;3.75;;;1.70;;
53411;SDS011;39307;52.870;13.660;2023-07-30T13:59:49;5.72;;;1.92;;
53411;SDS011;39307;52.870;13.660;2023-07-30T14:02:16;4.85;;;1.80;;
53411;SDS011;39307;52.870;13.660;2023-07-30T14:04:42;4.13;;;1.58;;
53411;SDS011;39307;52.870;13.660;2023-07-30T14:07:08;5.47;;;1.80;;
53411;SDS011;39307;52.870;13.660;2023-07-30T14:09:35;5.60;;;1.88;;
53411;SDS011;39307;52.870;13.660;2023-07-30T14:12:05;5.68;;;1.83;;
53411;SDS011;39307;52.870;13.660;2023-07-30T14:14:31;5.90;;;1.85;;
53411;SDS011;39307;52.870;13.660;2023-07-30T14:16:58;3.97;;;1.63;;
53411;SDS011;39307;52.870;13.660;2023-07-30T14:19:24;6.70;;;2.00;;
53411;SDS011;39307;52.870;13.660;2023-07-30T14:21:51;5.18;;;1.85;;
53411;SDS011;39307;52.870;13.660;2023-07-30T14:24:17;4.78;;;2.00;;
53411;SDS011;39307;52.870;13.660;2023-07-30T14:26:43;5.70;;;2.05;;
53411;SDS011;39307;52.870;13.660;2023-07-30T14:29:10;5.25;;;1.98;;
53411;SDS011;39307;52.870;13.660;2023-07-30T14:31:37;4.63;;;2.00;;
53411;SDS011;39307;52.870;13.660;2023-07-30T14:34:03;4.80;;;1.80;;
53411;SDS011;39307;52.870;13.660;2023-07-30T14:36:30;3.92;;;1.52;;
53411;SDS011;39307;52.870;13.660;2023-07-30T14:38:56;4.80;;;2.00;;
53411;SDS011;39307;52.870;13.660;2023-07-30T14:41:22;6.53;;;2.30;;
53411;SDS011;39307;52.870;13.660;2023-07-30T14:43:49;5.50;;;2.10;;
53411;SDS011;39307;52.870;13.660;2023-07-30T14:46:15;4.70;;;2.22;;
53411;SDS011;39307;52.870;13.660;2023-07-30T14:48:41;4.50;;;1.83;;
53411;SDS011;39307;52.870;13.660;2023-07-30T14:51:08;6.53;;;2.03;;
53411;SDS011;39307;52.870;13.660;2023-07-30T14:53:33;4.10;;;2.00;;
53411;SDS011;39307;52.870;13.660;2023-07-30T14:56:00;5.10;;;2.20;;
53411;SDS011;39307;52.870;13.660;2023-07-30T14:58:26;6.00;;;2.17;;
53411;SDS011;39307;52.870;13.660;2023-07-30T15:00:52;4.75;;;2.22;;
53411;SDS011;39307;52.870;13.660;2023-07-30T15:03:19;5.88;;;2.05;;
53411;SDS011;39307;52.870;13.660;2023-07-30T15:05:46;4.35;;;1.80;;
53411;SDS011;39307;52.870;13.660;2023-07-30T15:08:12;3.63;;;1.60;;
53411;SDS011;39307;52.870;13.660;2023-07-30T15:10:38;5.25;;;1.63;;
53411;SDS011;39307;52.870;13.660;2023-07-30T15:13:04;4.03;;;1.50;;
53411;SDS011;39307;52.870;13.660;2023-07-30T15:15:31;3.30;;;1.33;;
53411;SDS011;39307;52.870;13.660;2023-07-30T15:17:57;3.30;;;1.10;;
53411;SDS011;39307;52.870;13.660;2023-07-30T15:20:23;3.97;;;1.30;;
53411;SDS011;39307;52.870;13.660;2023-07-30T15:22:50;4.88;;;1.50;;
53411;SDS011;39307;52.870;13.660;2023-07-30T15:25:16;7.00;;;1.20;;
53411;SDS011;39307;52.870;13.660;2023-07-30T15:27:43;4.13;;;1.30;;
53411;SDS011;39307;52.870;13.660;2023-07-30T15:30:20;3.20;;;1.02;;
53411;SDS011;39307;52.870;13.660;2023-07-30T15:33:19;6.53;;;1.35;;
53411;SDS011;39307;52.870;13.660;2023-07-30T15:35:57;4.50;;;1.30;;
53411;SDS011;39307;52.870;13.660;2023-07-30T15:38:35;3.58;;;1.20;;
53411;SDS011;39307;52.870;13.660;2023-07-30T15:41:06;5.72;;;1.23;;
53411;SDS011;39307;52.870;13.660;2023-07-30T15:43:33;3.78;;;1.35;;
53411;SDS011;39307;52.870;13.660;2023-07-30T15:45:59;4.47;;;1.30;;